• Join FlightAware (Why Join?)
  • Login
  • US Flag 
09:20PM EDT


 

Airport Tracker/Info


-or-


 

Live Flight TrackerFlight Track Log ✈ AAL2356 ✈ 23-Apr-2013 ✈ KDFW - KORD

Flight Track Log - Related Links

Times and Time Zones

All times are in EDT time to prevent confusion due to time zone crossing. See the AAL2356 flight status page for this flight to view local times or setup timezone preferences in your user account.

Time Position Orientation Groundspeed Altitude Reporting Facility
EDT Latitude Longitude Course Direction KTS MPH feet Rate Location/Type
03:48PM 32.9167 -97.0333 347° North 149 171 2,100  Level Dallas / Fort Worth TRACON
03:49PM 32.9667 -97.0333 360° North 191 220 3,800 1,680 Climbing Dallas / Fort Worth TRACON
03:50PM 32.8742 -96.8000 North  Level FlightAware Approximate
03:51PM 32.9997 -96.8066 341° North  Level FlightAware Approximate
03:51PM 33.1250 -97.0189 North 267 307 7,600  Level Fort Worth Center
03:52PM 33.1209 -96.8488 347° North  Level FlightAware Approximate
03:52PM 33.2022 -97.0039 North 296 341 9,600  Level Fort Worth Center
03:53PM 33.2439 -96.8839 347° North  Level FlightAware Approximate
03:53PM 33.3022 -96.9858 North 317 365 11,400  Level Fort Worth Center
03:54PM 33.3942 -96.9731 North 354 407 12,600 1,800 Climbing Fort Worth Center
03:55PM 33.5131 -96.9375 14° North 383 441 15,100 2,400 Climbing Fort Worth Center
03:56PM 33.6108 -96.8972 19° North 407 468 17,400 2,340 Climbing Fort Worth Center
03:57PM 33.7381 -96.8489 18° North 425 489 19,800 2,040 Climbing Fort Worth Center
03:58PM 33.8422 -96.8083 18° North 431 496 21,500 1,800 Climbing Fort Worth Center
03:59PM 33.9589 -96.7650 17° North 431 496 23,400 1,740 Climbing Fort Worth Center
04:00PM 34.0797 -96.7164 18° North 441 507 25,000 1,500 Climbing Fort Worth Center
04:01PM 34.1961 -96.6703 18° North 441 507 26,500 1,500 Climbing Fort Worth Center
04:02PM 34.3189 -96.6189 19° North 447 514 28,100 1,500 Climbing Fort Worth Center
04:03PM 34.4394 -96.5522 25° Northeast 458 527 29,500 1,200 Climbing Fort Worth Center
04:04PM 34.5600 -96.4881 24° Northeast 464 534 30,500 960 Climbing Fort Worth Center
04:05PM 34.6806 -96.4186 25° Northeast 471 542 31,500 840 Climbing Fort Worth Center
04:06PM 34.8011 -96.3514 25° Northeast 471 542 32,200 660 Climbing Fort Worth Center
04:07PM 34.9194 -96.2842 25° Northeast 465 535 32,900 360 Climbing Fort Worth Center
04:08PM 35.0378 -96.2167 25° Northeast 465 535 33,000  Climbing Fort Worth Center
04:09PM 35.1600 -96.1514 24° Northeast 465 535 33,000  Level Fort Worth Center
04:10PM 35.2758 -96.0633 32° Northeast 470 541 33,000  Level Fort Worth Center
04:11PM 35.3811 -95.9522 41° Northeast 480 552 33,000  Level Fort Worth Center
04:12PM 35.4986 -95.8353 39° Northeast 491 565 33,000  Level Fort Worth Center
04:14PM 35.6622 -95.6644 40° Northeast 497 572 33,000  Level Kansas City Center
04:15PM 35.7714 -95.5553 39° Northeast 502 578 33,000  Level Kansas City Center
04:16PM 35.9014 -95.4214 40° Northeast 507 583 33,000  Level Kansas City Center
04:17PM 36.0094 -95.3089 40° Northeast 509 586 33,000  Level Kansas City Center
04:18PM 36.1053 -95.2092 40° Northeast 509 586 33,000  Level Kansas City Center
04:19PM 36.2253 -95.0853 40° Northeast 511 588 33,000  Level Kansas City Center
04:20PM 36.3331 -94.9733 40° Northeast 511 588 33,000  Level Kansas City Center
04:21PM 36.4622 -94.8369 40° Northeast 511 588 33,000  Level Kansas City Center
04:22PM 36.5711 -94.7233 40° Northeast 512 589 33,000  Level Kansas City Center
04:23PM 36.6794 -94.6086 40° Northeast 512 589 33,000  Level Kansas City Center
04:24PM 36.7875 -94.4942 40° Northeast 511 588 33,000  Level Kansas City Center
04:25PM 36.8958 -94.3786 40° Northeast 511 588 33,000  Level Kansas City Center
04:27PM 37.1339 -94.1206 41° Northeast 515 593 33,000  Level Kansas City Center
04:28PM 37.2314 -94.0164 40° Northeast 514 592 33,000  Level Kansas City Center
04:29PM 37.3378 -93.8969 42° Northeast 512 589 33,000  Level Kansas City Center
04:30PM 37.4444 -93.7769 42° Northeast 511 588 33,000  Level Kansas City Center
04:31PM 37.5747 -93.6344 41° Northeast 513 590 33,000  Level Kansas City Center
04:32PM 37.6817 -93.5142 42° Northeast 513 590 33,000  Level Kansas City Center
04:33PM 37.7881 -93.3936 42° Northeast 510 587 33,000  Level Kansas City Center
04:34PM 37.8961 -93.2733 41° Northeast 513 590 33,000  Level Kansas City Center
04:35PM 38.0031 -93.1514 42° Northeast 513 590 33,000  Level Kansas City Center
04:36PM 38.1106 -93.0286 42° Northeast 514 592 33,000  Level Kansas City Center
04:37PM 38.2183 -92.9081 41° Northeast 511 588 33,000  Level Kansas City Center
04:38PM 38.3247 -92.7858 42° Northeast 508 585 33,000  Level Kansas City Center
04:39PM 38.4294 -92.6658 42° Northeast 504 580 33,000  Level Kansas City Center
04:40PM 38.5564 -92.5189 42° Northeast 505 581 33,000  Level Kansas City Center
04:41PM 38.6631 -92.3956 42° Northeast 510 587 33,000  Level Kansas City Center
04:42PM 38.7658 -92.2725 43° Northeast 505 581 33,000  Level Kansas City Center
04:43PM 38.8711 -92.1497 42° Northeast 506 582 33,000  Level Kansas City Center
04:45PM 38.9764 -92.0269 42° Northeast 508 585 33,000  Level Kansas City Center
04:46PM 39.0783 -91.9000 44° Northeast 508 585 33,000  Level Kansas City Center
04:47PM 39.1789 -91.7692 45° Northeast 510 587 33,000  Level Kansas City Center
04:48PM 39.2883 -91.6303 44° Northeast 513 590 33,000  Level Kansas City Center
04:49PM 39.3956 -91.4903 45° Northeast 515 593 33,000  Level Kansas City Center
04:50PM 39.4961 -91.3597 45° Northeast 513 590 33,000  Level Kansas City Center
04:51PM 39.5964 -91.2283 45° Northeast 512 589 33,000  Level Kansas City Center
04:52PM 39.6975 -91.0964 45° Northeast 513 590 33,000  Level Kansas City Center
04:53PM 39.8256 -90.9650 38° Northeast 506 582 33,000  Level Kansas City Center
04:54PM 39.9400 -90.8503 38° Northeast 508 585 33,000  Level Kansas City Center
04:56PM 40.1642 -90.6197 38° Northeast 512 589 33,000  Level Kansas City Center
04:56PM 40.2094 -90.5750 37° Northeast 511 588 33,000  Level Chicago Center
04:57PM 40.3233 -90.4592 38° Northeast 515 593 33,000  Level Chicago Center
04:58PM 40.4367 -90.3444 38° Northeast 514 592 33,000 -600 Level Chicago Center
04:59PM 40.5481 -90.2278 39° Northeast 513 590 31,800 -1,560 Descending Chicago Center
05:00PM 40.6608 -90.1122 38° Northeast 515 593 29,800 -1,920 Descending Chicago Center
05:01PM 40.7753 -89.9944 38° Northeast 521 600 27,900 -1,920 Descending Chicago Center
05:02PM 40.9117 -89.8494 39° Northeast 523 602 25,900 -1,800 Descending Chicago Center
05:03PM 41.0128 -89.7375 40° Northeast 531 611 24,200 -960 Descending Chicago Center
05:04PM 41.0883 -89.5714 59° Northeast 519 597 24,000 -1,260 Descending Chicago Center
05:05PM 41.1844 -89.3772 57° Northeast 522 601 21,600 -2,580 Descending Chicago Center
05:07PM 41.2600 -89.2222 57° Northeast 503 579 18,700 -2,760 Descending Chicago Center
05:08PM 41.3367 -89.0644 57° Northeast 477 549 16,000 -3,240 Descending Chicago Center
05:09PM 41.4047 -88.9275 56° Northeast 449 517 12,100 -2,460 Descending Chicago Center
05:10PM 41.4678 -88.8008 56° Northeast 417 480 11,000 -540 Descending Chicago Center
05:11PM 41.5206 -88.6856 59° Northeast 371 427 11,000  Level Chicago Center
05:12PM 41.5639 -88.5742 62° Northeast 343 395 11,000  Level Chicago Center
05:13PM 41.6106 -88.4642 60° Northeast 341 392 11,000 -780 Level Chicago Center
05:14PM 41.6789 -88.3447 53° Northeast 338 389 9,400 -1,440 Descending Chicago Center
05:15PM 41.7344 -88.2506 52° Northeast 325 374 8,100 -1,140 Descending Chicago Center
05:16PM 41.7878 -88.1583 52° Northeast 316 364 7,100 -540 Descending Chicago Center
05:17PM 41.8319 -88.0647 58° Northeast 310 357 7,000 -60 Descending Chicago Center
05:18PM 41.8508 -87.9544 77° East 305 351 7,000  Level Chicago Center
05:19PM 41.8667 -87.8667 76° East 307 353 7,000 -360 Level Chicago TRACON
05:20PM 41.8833 -87.7500 79° East 297 342 6,400 -900 Descending Chicago TRACON
05:21PM 41.8833 -87.6500 90° East 261 300 5,200 -780 Descending Chicago TRACON
05:22PM 41.8833 -87.5667 90° East 240 276 5,000 -120 Descending Chicago TRACON
05:23PM 41.8833 -87.4667 90° East 243 280 5,000  Level Chicago TRACON
05:24PM 41.8833 -87.3833 90° East 208 239 5,000  Level Chicago TRACON
05:24PM 41.9019 -87.3739 21° North 211 243 5,000  Level Chicago Center
05:25PM 41.9333 -87.3833 347° North 192 221 5,000  Level Chicago TRACON
05:26PM 41.9667 -87.4167 323° Northwest 167 192 5,000  Level Chicago TRACON
05:27PM 41.9667 -87.4833 270° West 160 184 5,000  Level Chicago TRACON
05:28PM 41.9667 -87.5500 270° West 165 190 5,000  Level Chicago TRACON
05:29PM 41.9667 -87.6000 270° West 161 185 5,000  Level Chicago TRACON